Time;durP1;ratioP1;P1;durP2;ratioP2;P2;SDS_P1;SDS_P2;PMS_P1;PMS_P2;Temp;Humidity;BMP_temperature;BMP_pressure;BME280_temperature;BME280_humidity;BME280_pressure;Samples;Min_cycle;Max_cycle;Signal;HPM_P1;HPM_P2
2022/05/27 00:01:08;;;;;;;10.60;3.25;;;14.40;99.90;;;;;;5073590;28;20047;-71
2022/05/27 00:03:34;;;;;;;9.82;3.17;;;14.30;99.90;;;;;;5073679;28;20059;-71
2022/05/27 00:06:00;;;;;;;10.88;2.85;;;14.30;99.90;;;;;;5073520;28;20071;-71
2022/05/27 00:08:26;;;;;;;9.50;3.15;;;14.30;99.90;;;;;;5073733;28;20102;-71
2022/05/27 00:10:52;;;;;;;7.75;2.75;;;14.30;99.90;;;;;;5073305;28;20503;-71
2022/05/27 00:13:17;;;;;;;7.97;2.42;;;14.30;99.90;;;;;;5073281;28;20036;-71
2022/05/27 00:15:43;;;;;;;10.45;2.72;;;14.20;99.90;;;;;;5056659;28;20115;-71
2022/05/27 00:18:08;;;;;;;10.25;2.60;;;14.20;99.90;;;;;;5073533;28;20056;-71
2022/05/27 00:20:36;;;;;;;9.77;2.28;;;14.20;99.90;;;;;;5073186;28;20389;-71
2022/05/27 00:23:02;;;;;;;8.57;2.17;;;14.10;99.90;;;;;;5073072;28;20040;-71
2022/05/27 00:25:28;;;;;;;11.57;2.50;;;14.10;99.90;;;;;;5073354;28;20056;-71
2022/05/27 00:27:54;;;;;;;7.85;2.58;;;14.10;99.90;;;;;;5073030;28;20046;-71
2022/05/27 00:30:19;;;;;;;9.45;2.17;;;14.10;99.90;;;;;;5072935;28;20127;-71
2022/05/27 00:32:45;;;;;;;9.77;2.70;;;14.00;99.90;;;;;;5056317;28;20033;-71
2022/05/27 00:35:11;;;;;;;9.50;2.75;;;14.00;99.90;;;;;;5073060;28;20036;-71
2022/05/27 00:37:37;;;;;;;11.57;2.70;;;13.90;99.90;;;;;;5072851;28;20043;-71
2022/05/27 00:40:04;;;;;;;10.25;2.55;;;13.90;99.90;;;;;;5072832;28;20036;-71
2022/05/27 00:42:30;;;;;;;9.50;2.80;;;13.90;99.90;;;;;;5072656;28;20051;-71
2022/05/27 00:44:56;;;;;;;9.30;2.83;;;13.90;99.90;;;;;;5072576;28;20040;-71
2022/05/27 00:47:24;;;;;;;7.55;2.60;;;13.90;99.90;;;;;;5056308;28;20066;-71
2022/05/27 00:49:57;;;;;;;9.43;3.35;;;13.90;99.90;;;;;;5072388;28;20052;-71
2022/05/27 00:52:26;;;;;;;9.57;3.00;;;13.90;99.90;;;;;;5072897;28;20072;-71
2022/05/27 00:54:52;;;;;;;10.73;3.25;;;13.90;99.90;;;;;;5072680;28;20193;-71
2022/05/27 00:57:24;;;;;;;9.55;3.35;;;13.90;99.90;;;;;;5072715;28;20464;-71
2022/05/27 00:59:57;;;;;;;9.35;3.10;;;13.90;99.90;;;;;;5071993;28;20045;-71
2022/05/27 01:02:23;;;;;;;11.52;3.17;;;13.80;99.90;;;;;;5072420;28;20416;-71
2022/05/27 01:04:50;;;;;;;15.02;3.20;;;13.80;99.90;;;;;;5072320;28;20032;-71
2022/05/27 01:07:16;;;;;;;12.82;3.47;;;13.80;99.90;;;;;;5072285;28;20040;-72
2022/05/27 01:09:44;;;;;;;11.70;3.22;;;13.80;99.90;;;;;;5055523;28;20051;-71
2022/05/27 01:12:19;;;;;;;9.18;3.33;;;13.80;99.90;;;;;;5073329;28;20040;-71
2022/05/27 01:15:00;;;;;;;12.02;3.20;;;13.80;99.90;;;;;;5055715;28;20068;-71
2022/05/27 01:17:26;;;;;;;13.70;3.30;;;13.80;99.90;;;;;;5072190;28;20036;-71
2022/05/27 01:20:22;;;;;;;9.45;3.15;;;13.80;99.90;;;;;;5072416;28;20044;-71
2022/05/27 01:22:54;;;;;;;11.60;3.53;;;13.80;99.90;;;;;;5055482;28;20032;-71
2022/05/27 01:25:46;;;;;;;14.90;3.25;;;13.80;99.90;;;;;;5055365;28;20040;-71
2022/05/27 01:28:18;;;;;;;13.07;2.88;;;13.80;99.90;;;;;;5072052;28;20037;-71
2022/05/27 01:30:53;;;;;;;18.25;3.28;;;13.70;99.90;;;;;;5072025;28;20072;-71
2022/05/27 01:33:30;;;;;;;14.82;3.25;;;13.70;99.90;;;;;;5072209;28;20048;-71
2022/05/27 01:35:59;;;;;;;13.18;3.35;;;13.70;99.90;;;;;;5072254;28;20047;-71
2022/05/27 01:38:34;;;;;;;16.30;3.60;;;13.70;99.90;;;;;;5071916;28;20409;-71
2022/05/27 01:41:16;;;;;;;16.95;3.03;;;13.60;99.90;;;;;;5071910;28;20058;-71
2022/05/27 01:43:50;;;;;;;16.85;3.55;;;13.60;99.90;;;;;;5072286;28;20078;-71
2022/05/27 01:46:21;;;;;;;17.35;3.40;;;13.60;99.90;;;;;;5055450;28;20055;-71
2022/05/27 01:49:05;;;;;;;20.80;3.67;;;13.60;99.90;;;;;;5071753;28;20049;-71
2022/05/27 01:51:39;;;;;;;18.30;3.50;;;13.60;99.90;;;;;;5072102;28;20485;-71
2022/05/27 01:54:22;;;;;;;18.48;3.20;;;13.60;99.90;;;;;;5071757;28;20037;-71
2022/05/27 01:56:49;;;;;;;15.30;3.17;;;13.60;99.90;;;;;;5071827;28;20037;-71
2022/05/27 01:59:27;;;;;;;19.40;3.80;;;13.50;99.90;;;;;;5071673;28;20415;-71
2022/05/27 02:02:00;;;;;;;14.55;3.47;;;13.50;99.90;;;;;;5071729;28;20044;-71
2022/05/27 02:04:30;;;;;;;;;;;13.50;99.90;;;;;;5072130;28;20040;-71
2022/05/27 02:07:35;;;;;;;19.67;3.20;;;13.40;99.90;;;;;;5071685;28;19917;-71
2022/05/27 02:10:07;;;;;;;18.00;3.80;;;13.40;99.90;;;;;;5046731;28;20044;-69
2022/05/27 02:12:39;;;;;;;13.50;2.80;;;13.40;99.90;;;;;;5075173;28;20527;-69
2022/05/27 02:15:13;;;;;;;18.08;3.30;;;13.40;99.90;;;;;;5075532;28;20032;-69
2022/05/27 02:17:49;;;;;;;15.57;3.40;;;13.40;99.90;;;;;;5075604;28;20040;-69
2022/05/27 02:20:25;;;;;;;18.30;3.28;;;13.40;99.90;;;;;;5075833;28;20044;-69
2022/05/27 02:23:02;;;;;;;14.23;3.20;;;13.40;99.90;;;;;;5075777;28;20153;-69
2022/05/27 02:25:35;;;;;;;17.30;4.05;;;13.40;99.90;;;;;;5075887;28;20128;-69
2022/05/27 02:28:14;;;;;;;21.15;3.25;;;13.30;99.90;;;;;;5075713;28;20072;-69
2022/05/27 02:30:43;;;;;;;16.40;3.47;;;13.30;99.90;;;;;;5075302;28;20040;-69
2022/05/27 02:36:04;;;;;;;18.73;3.90;;;13.20;99.90;;;;;;5075187;28;20080;-69
2022/05/27 02:38:30;;;;;;;16.98;3.72;;;13.10;99.90;;;;;;5075778;28;20420;-69
2022/05/27 02:41:07;;;;;;;18.00;3.38;;;13.10;99.90;;;;;;5075117;28;20480;-69
2022/05/27 02:43:48;;;;;;;18.65;3.45;;;13.10;99.90;;;;;;5075011;28;20040;-69
2022/05/27 02:46:37;;;;;;;19.55;3.70;;;13.10;99.90;;;;;;5075024;28;20048;-69
2022/05/27 02:49:34;;;;;;;19.50;4.35;;;13.00;99.90;;;;;;5074675;28;20149;-69
2022/05/27 02:52:13;;;;;;;20.77;3.42;;;13.00;99.90;;;;;;5075185;28;20123;-69
2022/05/27 02:55:22;;;;;;;19.88;3.35;;;12.90;99.90;;;;;;5058088;28;20522;-69
2022/05/27 02:57:50;;;;;;;15.95;3.35;;;12.90;99.90;;;;;;5037249;28;20040;-69
2022/05/27 03:00:20;;;;;;;19.00;3.60;;;12.80;99.90;;;;;;5020744;28;20042;-69
2022/05/27 03:02:46;;;;;;;16.90;3.03;;;12.90;99.90;;;;;;5037203;28;20493;-69
2022/05/27 03:05:16;;;;;;;22.08;3.53;;;12.90;99.90;;;;;;5037070;28;20424;-69
2022/05/27 03:07:41;;;;;;;19.98;3.78;;;12.90;99.90;;;;;;5037042;28;20437;-69
2022/05/27 03:10:36;;;;;;;15.77;3.50;;;12.80;99.90;;;;;;5037215;28;20056;-69
2022/05/27 03:13:28;;;;;;;19.85;3.38;;;12.80;99.90;;;;;;5014482;28;20464;-69
2022/05/27 03:16:22;;;;;;;17.08;3.70;;;12.80;99.90;;;;;;5036957;28;20045;-69
2022/05/27 03:18:55;;;;;;;17.52;3.42;;;12.80;99.90;;;;;;5036898;28;20041;-69
2022/05/27 03:21:32;;;;;;;15.95;3.47;;;12.80;99.90;;;;;;5036801;28;20056;-69
2022/05/27 03:24:14;;;;;;;19.88;3.50;;;12.80;99.90;;;;;;5036734;28;20041;-69
2022/05/27 03:26:42;;;;;;;17.17;3.58;;;12.80;99.90;;;;;;5036799;28;20045;-69
2022/05/27 03:29:32;;;;;;;13.95;3.20;;;12.80;99.90;;;;;;5052929;28;20084;-69
2022/05/27 03:32:08;;;;;;;15.32;3.75;;;12.80;99.90;;;;;;5057505;28;20090;-69
2022/05/27 03:34:47;;;;;;;23.13;3.75;;;12.80;99.90;;;;;;5074091;28;20039;-69
2022/05/27 03:37:35;;;;;;;20.50;4.00;;;12.80;99.90;;;;;;5074121;28;20520;-69
2022/05/27 03:40:16;;;;;;;16.42;4.10;;;12.80;99.90;;;;;;5057618;28;20385;-69
2022/05/27 03:42:42;;;;;;;22.10;4.53;;;12.70;99.90;;;;;;5074007;28;20048;-69
2022/05/27 03:45:14;;;;;;;21.40;4.65;;;12.70;99.90;;;;;;5057149;28;20040;-69
2022/05/27 03:47:42;;;;;;;22.20;4.13;;;12.70;99.90;;;;;;5057220;28;20055;-69
2022/05/27 03:50:11;;;;;;;18.80;3.78;;;12.70;99.90;;;;;;5073826;28;20520;-69
2022/05/27 03:52:40;;;;;;;17.88;4.07;;;12.70;99.90;;;;;;5073799;28;20040;-69
2022/05/27 03:55:09;;;;;;;15.20;3.50;;;12.80;99.90;;;;;;5073919;28;20029;-69
2022/05/27 03:57:34;;;;;;;17.88;3.88;;;12.80;99.90;;;;;;5073657;28;20068;-69
2022/05/27 04:00:00;;;;;;;14.98;3.83;;;12.80;99.90;;;;;;5073615;28;20130;-69
2022/05/27 04:02:26;;;;;;;20.73;4.13;;;12.80;99.90;;;;;;5073610;28;20066;-69
2022/05/27 04:04:52;;;;;;;20.83;4.03;;;12.80;99.90;;;;;;5073713;28;20048;-69
2022/05/27 04:07:17;;;;;;;17.45;3.78;;;12.90;99.90;;;;;;5073518;28;20047;-69
2022/05/27 04:09:43;;;;;;;23.92;4.07;;;12.90;99.90;;;;;;5073301;28;20052;-69
2022/05/27 04:12:09;;;;;;;17.38;3.63;;;12.90;99.90;;;;;;5073406;28;20043;-69
2022/05/27 04:14:35;;;;;;;19.05;3.88;;;12.90;99.90;;;;;;5073520;28;20033;-69
2022/05/27 04:19:45;;;;;;;20.42;4.47;;;12.90;99.90;;;;;;5073816;28;20040;-69
2022/05/27 04:22:11;;;;;;;21.98;4.03;;;12.80;99.90;;;;;;5056555;28;20516;-71
2022/05/27 04:24:37;;;;;;;20.88;4.35;;;12.90;99.90;;;;;;5056665;28;20037;-71
2022/05/27 04:27:08;;;;;;;17.40;4.13;;;12.90;99.90;;;;;;5073067;28;20047;-71
2022/05/27 04:29:41;;;;;;;22.45;4.53;;;12.90;99.90;;;;;;5056312;28;20036;-71
2022/05/27 04:32:07;;;;;;;17.58;3.75;;;12.90;99.90;;;;;;5073027;28;20044;-71
2022/05/27 04:34:33;;;;;;;25.50;5.07;;;12.90;99.90;;;;;;5055381;28;20047;-71
2022/05/27 04:36:59;;;;;;;17.83;3.80;;;12.90;99.90;;;;;;5056512;28;20040;-71
2022/05/27 04:39:25;;;;;;;18.85;3.92;;;13.00;99.90;;;;;;5056157;28;20447;-71
2022/05/27 04:41:50;;;;;;;18.85;3.80;;;13.00;99.90;;;;;;5073028;28;20044;-71
2022/05/27 04:44:16;;;;;;;17.45;4.28;;;13.00;99.90;;;;;;5056067;28;20036;-71
2022/05/27 04:46:44;;;;;;;20.08;3.50;;;12.90;99.90;;;;;;5072704;28;20039;-72
2022/05/27 04:49:50;;;;;;;18.10;4.10;;;13.00;99.90;;;;;;5055875;28;20036;-71
2022/05/27 04:51:55;;;;;;;21.20;4.32;;;12.90;99.90;;;;;;5073504;28;20036;-71
2022/05/27 04:54:21;;;;;;;15.90;3.03;;;12.90;99.90;;;;;;5072745;28;20452;-71
2022/05/27 04:56:46;;;;;;;14.82;3.83;;;12.80;99.90;;;;;;5072800;28;20692;-71
2022/05/27 04:59:12;;;;;;;14.02;2.90;;;12.80;99.90;;;;;;5072740;28;20536;-71
2022/05/27 05:01:37;;;;;;;20.08;3.80;;;12.80;99.90;;;;;;5072433;28;20044;-71
2022/05/27 05:04:03;;;;;;;16.45;3.03;;;12.80;99.90;;;;;;5072345;28;20086;-71
2022/05/27 05:06:29;;;;;;;18.65;3.15;;;12.80;99.90;;;;;;5055657;28;20036;-71
2022/05/27 05:08:54;;;;;;;16.92;3.38;;;12.80;99.90;;;;;;5072281;28;20072;-71
2022/05/27 05:11:20;;;;;;;18.23;3.65;;;12.80;99.90;;;;;;5055531;28;20094;-71
2022/05/27 05:13:45;;;;;;;16.33;2.88;;;12.80;99.90;;;;;;5072132;28;20032;-72
2022/05/27 05:16:12;;;;;;;19.08;3.25;;;12.80;99.90;;;;;;5055544;28;20071;-71
2022/05/27 05:18:38;;;;;;;15.15;3.53;;;12.80;99.90;;;;;;5072172;28;20040;-71
2022/05/27 05:21:03;;;;;;;14.25;3.20;;;12.80;99.90;;;;;;5072381;28;20032;-71
2022/05/27 05:23:29;;;;;;;19.92;3.13;;;12.90;99.90;;;;;;5072034;28;20492;-71
2022/05/27 05:25:55;;;;;;;18.77;3.33;;;12.90;99.90;;;;;;5072534;28;20032;-72
2022/05/27 05:28:21;;;;;;;15.25;2.72;;;13.00;99.90;;;;;;5072265;28;20622;-71
2022/05/27 05:30:46;;;;;;;15.93;3.53;;;13.00;99.90;;;;;;5071902;28;20455;-72
2022/05/27 05:33:12;;;;;;;19.40;2.97;;;13.10;99.90;;;;;;5055511;28;20041;-71
2022/05/27 05:35:37;;;;;;;12.93;2.80;;;13.10;99.90;;;;;;5055512;28;20489;-71
2022/05/27 05:38:04;;;;;;;16.92;2.78;;;13.10;99.90;;;;;;5055280;28;20484;-71
2022/05/27 05:40:30;;;;;;;14.73;3.10;;;13.10;99.90;;;;;;5055199;28;20094;-71
2022/05/27 05:42:56;;;;;;;16.35;3.88;;;13.20;99.90;;;;;;5071845;28;20041;-71
2022/05/27 05:45:22;;;;;;;22.95;4.32;;;13.20;99.90;;;;;;5071629;28;20437;-71
2022/05/27 05:47:48;;;;;;;19.60;3.42;;;13.20;99.90;;;;;;5072076;28;20059;-72
2022/05/27 05:50:15;;;;;;;14.85;3.00;;;13.30;99.90;;;;;;5071571;28;20554;-72
2022/05/27 05:52:41;;;;;;;13.85;3.45;;;13.30;99.90;;;;;;5071789;28;20535;-72
2022/05/27 05:55:07;;;;;;;20.65;3.50;;;13.40;99.90;;;;;;5071722;28;20036;-71
2022/05/27 05:57:37;;;;;;;15.10;2.88;;;13.40;99.90;;;;;;5072020;28;20143;-72
2022/05/27 06:00:04;;;;;;;18.08;3.65;;;13.40;99.90;;;;;;5071740;28;20528;-71
2022/05/27 06:02:29;;;;;;;12.70;2.92;;;13.40;99.90;;;;;;5071993;28;20040;-71
2022/05/27 06:04:56;;;;;;;16.40;2.75;;;13.30;99.90;;;;;;5071853;28;20512;-71
2022/05/27 06:07:21;;;;;;;16.20;3.25;;;13.30;99.90;;;;;;5071662;28;20048;-71
2022/05/27 06:09:47;;;;;;;12.80;3.00;;;13.40;99.90;;;;;;5071549;28;20048;-72
2022/05/27 06:12:15;;;;;;;20.45;3.42;;;13.40;99.90;;;;;;5071890;28;20040;-71
2022/05/27 06:14:41;;;;;;;15.50;2.97;;;13.40;99.90;;;;;;5071770;28;20115;-72
2022/05/27 06:17:06;;;;;;;16.83;2.67;;;13.40;99.90;;;;;;5071555;28;20449;-71
2022/05/27 06:19:32;;;;;;;15.88;3.13;;;13.30;99.90;;;;;;5071531;28;20048;-71
2022/05/27 06:21:57;;;;;;;14.93;2.95;;;13.40;99.90;;;;;;5071792;28;20033;-72
2022/05/27 06:24:23;;;;;;;15.57;3.15;;;13.40;99.90;;;;;;5071420;28;20408;-71
2022/05/27 06:26:48;;;;;;;14.90;2.75;;;13.50;99.90;;;;;;5071431;28;20070;-71
2022/05/27 06:34:42;;;;;;;18.85;3.42;;;13.60;99.90;;;;;;5071347;28;20036;-71
2022/05/27 06:37:12;;;;;;;17.17;3.30;;;13.70;99.90;;;;;;5071401;28;20028;-72
2022/05/27 06:39:38;;;;;;;15.93;3.40;;;13.80;99.90;;;;;;5054589;28;20072;-73
2022/05/27 06:42:09;;;;;;;13.18;2.90;;;13.80;99.90;;;;;;5054645;28;20484;-72
2022/05/27 06:44:36;;;;;;;14.07;3.10;;;13.80;99.90;;;;;;5071244;28;20048;-71
2022/05/27 06:47:02;;;;;;;13.30;3.00;;;13.80;99.90;;;;;;5071260;28;20427;-71
2022/05/27 06:49:27;;;;;;;20.75;3.53;;;13.80;99.90;;;;;;5071159;28;20040;-71
2022/05/27 06:51:53;;;;;;;18.17;3.25;;;13.80;99.90;;;;;;5071211;28;20062;-71
2022/05/27 06:54:20;;;;;;;11.43;3.05;;;13.90;99.90;;;;;;5071132;28;20066;-71
2022/05/27 06:56:45;;;;;;;15.73;3.58;;;14.00;99.90;;;;;;5071641;28;20115;-71
2022/05/27 06:59:12;;;;;;;18.55;3.10;;;14.00;99.90;;;;;;5058308;28;20128;-71
2022/05/27 07:01:38;;;;;;;17.80;3.50;;;14.10;99.90;;;;;;5075083;28;20127;-72
2022/05/27 07:04:04;;;;;;;15.50;3.00;;;14.10;99.90;;;;;;5074888;28;20549;-71
2022/05/27 07:06:37;;;;;;;12.43;3.20;;;14.00;99.90;;;;;;5074868;28;20032;-71
2022/05/27 07:09:06;;;;;;;12.60;3.38;;;14.00;99.90;;;;;;5074533;28;20472;-71
2022/05/27 07:11:33;;;;;;;19.58;3.33;;;14.00;99.90;;;;;;5057903;28;20140;-71
2022/05/27 07:13:58;;;;;;;11.25;2.40;;;14.00;99.90;;;;;;5074777;28;20087;-71
2022/05/27 07:16:26;;;;;;;12.55;2.58;;;14.10;99.90;;;;;;5074485;28;20412;-71
2022/05/27 07:18:52;;;;;;;13.20;2.90;;;14.10;99.90;;;;;;5074427;28;20032;-72
2022/05/27 07:21:18;;;;;;;15.40;3.10;;;14.10;99.90;;;;;;5074364;28;20120;-72
2022/05/27 07:23:44;;;;;;;13.02;2.83;;;14.20;99.90;;;;;;5074282;28;20091;-71
2022/05/27 07:26:10;;;;;;;13.05;3.00;;;14.20;99.90;;;;;;5074294;28;20048;-71
2022/05/27 07:28:35;;;;;;;18.25;2.90;;;14.30;99.90;;;;;;5074255;28;20047;-71
2022/05/27 07:31:01;;;;;;;15.63;2.88;;;14.30;99.90;;;;;;5074224;28;20051;-71
2022/05/27 07:33:28;;;;;;;18.83;4.07;;;14.30;99.90;;;;;;5074146;28;20484;-71
2022/05/27 07:35:54;;;;;;;12.10;2.65;;;14.30;99.90;;;;;;5074156;28;20072;-71
2022/05/27 07:38:19;;;;;;;15.95;3.15;;;14.30;99.90;;;;;;5074075;28;20076;-72
2022/05/27 07:40:45;;;;;;;14.48;2.95;;;14.40;99.90;;;;;;5057641;28;20032;-71
2022/05/27 07:43:12;;;;;;;11.77;2.80;;;14.40;99.90;;;;;;5073942;28;20504;-71
2022/05/27 07:45:40;;;;;;;17.05;3.60;;;14.40;99.90;;;;;;5073980;28;20044;-71
2022/05/27 07:48:06;;;;;;;16.08;3.33;;;14.50;99.90;;;;;;5073864;28;20389;-71
2022/05/27 07:50:32;;;;;;;21.95;2.80;;;14.70;99.90;;;;;;5057278;28;20134;-71
2022/05/27 07:52:58;;;;;;;13.75;3.05;;;14.70;99.90;;;;;;5073988;28;20040;-71
2022/05/27 07:55:24;;;;;;;16.50;3.00;;;14.70;99.90;;;;;;5074023;28;20507;-71
2022/05/27 07:57:50;;;;;;;15.63;3.30;;;14.60;99.90;;;;;;5073722;28;20452;-72
2022/05/27 08:00:24;;;;;;;11.32;3.30;;;14.60;99.90;;;;;;5073678;28;20512;-72
2022/05/27 08:02:50;;;;;;;14.43;3.05;;;14.60;99.90;;;;;;5073652;28;20041;-72
2022/05/27 08:05:21;;;;;;;13.20;3.10;;;14.60;99.90;;;;;;5073477;28;20051;-72
2022/05/27 08:07:48;;;;;;;14.73;3.38;;;14.70;99.90;;;;;;5073490;28;20123;-71
2022/05/27 08:10:16;;;;;;;13.13;2.63;;;14.90;99.90;;;;;;5101855;22;20052;-80
2022/05/27 08:12:42;;;;;;;14.43;3.33;;;15.00;99.90;;;;;;5020858;28;20049;-80
2022/05/27 08:15:09;;;;;;;12.70;3.28;;;14.90;99.90;;;;;;5035926;28;20033;-80
2022/05/27 08:17:35;;;;;;;14.25;3.03;;;14.90;99.90;;;;;;5035517;28;20041;-80
2022/05/27 08:20:01;;;;;;;10.13;2.15;;;14.80;99.90;;;;;;5017988;28;20048;-80
2022/05/27 08:22:27;;;;;;;9.35;2.53;;;14.90;99.90;;;;;;5018693;28;20073;-80
2022/05/27 08:24:53;;;;;;;13.63;2.63;;;15.10;99.90;;;;;;5018739;28;20080;-81
2022/05/27 08:27:18;;;;;;;13.05;2.42;;;15.30;99.90;;;;;;5017847;28;20512;-80
2022/05/27 08:29:44;;;;;;;10.88;2.30;;;15.20;99.90;;;;;;5019678;28;20069;-80
2022/05/27 08:32:09;;;;;;;8.60;2.03;;;15.10;99.30;;;;;;5018644;28;20064;-80
2022/05/27 08:40:24;;;;;;;10.70;2.55;;;15.30;99.90;;;;;;5034012;28;20049;-80
2022/05/27 08:43:01;;;;;;;11.60;2.10;;;15.40;99.90;;;;;;5017756;28;20136;-80
2022/05/27 08:45:36;;;;;;;14.55;3.05;;;15.30;99.30;;;;;;5035003;28;20042;-80
2022/05/27 08:48:08;;;;;;;13.65;3.05;;;15.40;99.90;;;;;;5034761;28;20037;-80
2022/05/27 08:50:44;;;;;;;12.02;3.28;;;15.30;97.90;;;;;;5035755;28;20104;-80
2022/05/27 08:53:16;;;;;;;13.18;2.55;;;15.30;99.60;;;;;;5018212;28;20034;-80
2022/05/27 09:01:42;;;;;;;16.02;2.83;;;15.90;99.20;;;;;;5033458;28;20513;-80
2022/05/27 09:04:17;;;;;;;12.15;2.75;;;15.90;98.50;;;;;;5017080;28;20045;-80
2022/05/27 09:06:46;;;;;;;11.95;2.78;;;16.00;97.10;;;;;;5033520;28;20453;-80
2022/05/27 09:09:26;;;;;;;12.90;2.63;;;16.00;95.10;;;;;;5032622;28;20044;-80
2022/05/27 09:12:36;;;;;;;17.95;3.55;;;16.10;95.50;;;;;;5016851;28;20050;-80
2022/05/27 09:15:25;;;;;;;14.43;2.70;;;16.00;97.20;;;;;;4957630;28;20035;-80
2022/05/27 09:18:18;;;;;;;10.07;2.58;;;16.00;94.50;;;;;;5029380;28;20049;-79
2022/05/27 09:21:02;;;;;;;12.52;2.50;;;15.90;99.30;;;;;;5016045;28;20132;-80
2022/05/27 09:23:47;;;;;;;13.40;2.65;;;16.00;98.40;;;;;;5033027;28;20379;-80
2022/05/27 09:26:27;;;;;;;11.48;2.40;;;16.20;96.40;;;;;;5032741;28;20535;-80
2022/05/27 09:29:17;;;;;;;10.93;2.00;;;16.40;96.70;;;;;;5016129;28;20124;-79
2022/05/27 09:31:50;;;;;;;10.75;2.58;;;16.60;99.50;;;;;;5015833;28;20107;-80
2022/05/27 09:34:16;;;;;;;11.80;2.13;;;16.40;92.80;;;;;;5032848;28;20051;-80
2022/05/27 09:36:46;;;;;;;11.32;2.50;;;16.30;95.10;;;;;;5016320;28;20037;-80
2022/05/27 09:39:14;;;;;;;11.00;2.70;;;16.40;97.30;;;;;;5032806;28;20045;-80
2022/05/27 09:41:52;;;;;;;11.80;2.50;;;16.40;97.20;;;;;;5032652;28;20498;-80
2022/05/27 09:44:26;;;;;;;10.75;2.75;;;16.30;93.10;;;;;;5032550;28;20037;-80
2022/05/27 09:46:53;;;;;;;9.85;2.22;;;16.30;94.90;;;;;;5016341;28;20095;-80
2022/05/27 09:49:18;;;;;;;9.52;2.15;;;16.40;93.00;;;;;;5015835;28;20132;-80
2022/05/27 09:51:44;;;;;;;12.90;2.53;;;16.50;93.10;;;;;;5015882;28;20148;-80
2022/05/27 09:54:38;;;;;;;13.90;2.97;;;16.70;94.30;;;;;;5032696;28;20064;-80
2022/05/27 09:57:17;;;;;;;10.32;2.30;;;16.70;93.30;;;;;;5016235;28;20146;-80
2022/05/27 09:59:49;;;;;;;9.93;2.67;;;16.40;91.30;;;;;;5016158;28;20163;-80
2022/05/27 10:02:22;;;;;;;14.23;2.80;;;16.40;95.00;;;;;;5016093;28;20523;-80
2022/05/27 10:04:52;;;;;;;12.55;2.85;;;16.50;93.30;;;;;;5032375;28;20291;-80
2022/05/27 10:07:27;;;;;;;15.88;3.13;;;16.60;92.30;;;;;;5032552;28;20052;-80
2022/05/27 10:09:54;;;;;;;12.25;2.85;;;16.40;96.60;;;;;;5015609;28;20132;-79
2022/05/27 10:12:33;;;;;;;10.50;2.28;;;16.20;95.70;;;;;;5015891;28;20045;-80
2022/05/27 10:14:59;;;;;;;14.93;2.63;;;16.20;93.20;;;;;;5032578;28;20052;-80
2022/05/27 10:17:36;;;;;;;10.85;2.40;;;16.40;92.70;;;;;;5015843;28;20116;-80
2022/05/27 10:20:28;;;;;;;11.10;2.33;;;16.50;91.60;;;;;;5032066;28;20508;-79
2022/05/27 10:23:00;;;;;;;10.45;2.30;;;16.50;88.00;;;;;;5032213;28;20046;-80
2022/05/27 10:25:33;;;;;;;15.18;2.60;;;16.50;90.60;;;;;;5031918;28;20077;-80
2022/05/27 10:27:58;;;;;;;;;;;16.40;87.10;;;;;;5016346;28;20041;-80
2022/05/27 10:30:30;;;;;;;10.43;2.28;;;16.30;87.30;;;;;;5015753;28;19924;-80
2022/05/27 10:33:19;;;;;;;10.25;2.20;;;16.40;89.00;;;;;;5034574;28;20044;-80
2022/05/27 10:35:46;;;;;;;15.52;2.78;;;16.50;90.80;;;;;;5036124;28;20116;-80
2022/05/27 10:38:33;;;;;;;13.23;2.40;;;16.60;92.50;;;;;;5019252;28;20033;-80
2022/05/27 10:41:11;;;;;;;11.82;2.22;;;16.50;88.60;;;;;;5019489;28;20482;-80
2022/05/27 10:43:58;;;;;;;8.05;1.88;;;16.40;87.80;;;;;;5019542;28;20521;-80
2022/05/27 10:46:32;;;;;;;10.07;2.13;;;16.50;84.20;;;;;;5019475;28;20539;-79
2022/05/27 10:49:19;;;;;;;10.35;2.28;;;16.70;86.10;;;;;;5019234;28;20525;-79
2022/05/27 10:52:14;;;;;;;9.43;2.15;;;16.90;84.60;;;;;;5035728;28;20045;-80
2022/05/27 10:54:58;;;;;;;8.80;2.50;;;16.60;79.00;;;;;;5036192;28;20049;-80
2022/05/27 11:03:47;;;;;;;17.73;2.28;;;16.60;88.50;;;;;;5037246;28;20108;-80
2022/05/27 11:06:57;;;;;;;14.45;2.85;;;16.70;90.20;;;;;;5036570;28;20386;-80
2022/05/27 11:09:54;;;;;;;10.30;2.45;;;16.80;93.00;;;;;;5031934;28;20401;-80
2022/05/27 11:15:31;;;;;;;12.00;2.28;;;17.30;85.00;;;;;;5035692;28;20038;-80
2022/05/27 11:18:06;;;;;;;10.52;2.42;;;17.30;85.70;;;;;;5036639;28;20046;-80
2022/05/27 11:20:50;;;;;;;8.55;2.65;;;17.30;85.10;;;;;;5036444;28;20041;-80
2022/05/27 11:23:30;;;;;;;13.48;2.65;;;17.10;88.80;;;;;;5035920;28;20485;-80
2022/05/27 11:25:59;;;;;;;15.02;3.10;;;17.00;93.10;;;;;;5036043;28;20041;-80
2022/05/27 11:28:36;;;;;;;12.25;3.03;;;17.30;94.50;;;;;;5036460;28;20051;-80
2022/05/27 11:31:30;;;;;;;14.82;2.83;;;17.40;90.30;;;;;;5038371;28;20080;-79
2022/05/27 11:34:34;;;;;;;10.32;2.47;;;17.60;92.70;;;;;;5021977;28;20041;-80
2022/05/27 11:37:23;;;;;;;8.60;2.10;;;17.70;86.30;;;;;;5019829;28;20034;-81
2022/05/27 11:40:20;;;;;;;10.63;2.65;;;17.70;75.60;;;;;;5036939;28;20041;-80
2022/05/27 11:43:01;;;;;;;12.63;2.65;;;17.40;69.80;;;;;;5035599;28;20065;-80
2022/05/27 11:45:29;;;;;;;14.63;3.03;;;17.10;80.10;;;;;;5018863;28;20049;-80
2022/05/27 11:48:04;;;;;;;15.18;2.70;;;17.10;89.30;;;;;;5019491;28;20134;-80
2022/05/27 11:50:47;;;;;;;12.15;2.55;;;17.40;92.80;;;;;;5035623;28;20052;-79
2022/05/27 11:53:16;;;;;;;9.87;2.60;;;17.40;85.50;;;;;;5038068;28;20045;-79
2022/05/27 11:55:44;;;;;;;10.95;2.30;;;17.20;85.30;;;;;;5020153;28;20276;-79
2022/05/27 11:58:18;;;;;;;12.00;2.50;;;16.90;90.10;;;;;;5037274;28;20556;-80
2022/05/27 12:00:53;;;;;;;15.13;3.08;;;16.90;93.30;;;;;;5018925;28;20519;-80
2022/05/27 12:03:25;;;;;;;14.60;2.75;;;16.90;93.40;;;;;;5021010;28;20045;-80
2022/05/27 12:05:56;;;;;;;15.60;2.80;;;16.90;92.10;;;;;;5021167;28;20041;-80
2022/05/27 12:08:48;;;;;;;12.68;2.83;;;17.20;94.90;;;;;;5036521;28;20057;-79
2022/05/27 12:11:26;;;;;;;15.30;2.88;;;17.20;86.30;;;;;;5018780;28;20097;-80
2022/05/27 12:13:58;;;;;;;13.90;2.92;;;16.90;85.30;;;;;;5036797;28;20148;-80
2022/05/27 12:16:27;;;;;;;12.23;2.90;;;17.10;89.40;;;;;;5019154;28;20453;-80
2022/05/27 12:19:31;;;;;;;12.80;2.80;;;17.10;91.60;;;;;;5019791;28;20033;-79
2022/05/27 12:22:12;;;;;;;;;;;17.30;87.60;;;;;;5017185;28;20049;-79
2022/05/27 12:24:42;;;;;;;13.10;3.10;;;17.20;82.60;;;;;;5039227;28;19917;-79
2022/05/27 12:27:11;;;;;;;19.63;3.22;;;17.30;89.10;;;;;;5022328;28;20037;-80
2022/05/27 12:29:40;;;;;;;19.08;3.35;;;17.20;92.00;;;;;;5021387;28;20478;-79
2022/05/27 12:32:11;;;;;;;16.55;3.47;;;17.00;91.20;;;;;;5038794;28;20128;-81
2022/05/27 12:34:40;;;;;;;11.48;2.88;;;17.20;93.00;;;;;;5038586;28;20068;-81
2022/05/27 12:37:12;;;;;;;13.40;3.38;;;17.30;90.90;;;;;;5038496;28;20092;-79
2022/05/27 12:39:40;;;;;;;14.52;3.17;;;17.30;88.80;;;;;;5022246;28;20049;-80
2022/05/27 12:42:20;;;;;;;13.60;2.47;;;17.10;90.00;;;;;;5038433;28;20045;-80
2022/05/27 12:44:47;;;;;;;14.38;2.85;;;17.20;90.80;;;;;;5038771;28;20041;-80
2022/05/27 12:47:37;;;;;;;14.10;2.65;;;17.30;90.80;;;;;;5037948;28;20041;-80
2022/05/27 12:50:13;;;;;;;11.57;2.65;;;17.30;90.00;;;;;;5021823;28;20033;-79
2022/05/27 12:52:50;;;;;;;15.43;3.60;;;17.60;86.60;;;;;;5021939;28;20046;-79
2022/05/27 13:02:23;;;;;;;13.88;3.10;;;17.50;85.80;;;;;;5038737;28;20045;-79
2022/05/27 13:04:55;;;;;;;16.80;2.95;;;17.60;79.70;;;;;;5037939;28;20048;-79
2022/05/27 13:07:33;;;;;;;12.07;2.67;;;17.40;84.90;;;;;;5021685;28;20120;-79
2022/05/27 13:10:28;;;;;;;13.82;3.15;;;17.50;87.80;;;;;;5037452;28;20042;-79
2022/05/27 13:13:08;;;;;;;16.48;2.95;;;17.40;83.30;;;;;;5020223;28;20057;-80
2022/05/27 13:15:53;;;;;;;14.88;2.78;;;17.40;77.20;;;;;;5037368;28;20069;-80
2022/05/27 13:18:18;;;;;;;15.57;2.97;;;17.20;79.30;;;;;;5020372;28;20037;-80
2022/05/27 13:21:21;;;;;;;12.35;2.78;;;17.00;88.60;;;;;;5034584;28;20405;-80
2022/05/27 13:24:01;;;;;;;14.32;3.83;;;17.10;90.10;;;;;;5007327;28;20049;-80
2022/05/27 13:26:45;;;;;;;15.98;3.33;;;16.90;89.00;;;;;;5019027;28;20080;-80
2022/05/27 13:29:25;;;;;;;13.15;2.72;;;16.70;91.10;;;;;;5033997;28;20489;-80
2022/05/27 13:32:20;;;;;;;12.88;2.85;;;16.60;93.00;;;;;;5018813;28;20128;-80
2022/05/27 13:34:52;;;;;;;13.45;3.08;;;16.40;91.30;;;;;;4993504;28;20049;-80
2022/05/27 13:37:27;;;;;;;12.17;2.33;;;16.30;92.50;;;;;;5017781;28;20072;-80
2022/05/27 13:39:58;;;;;;;13.88;2.80;;;16.30;92.50;;;;;;5034136;28;20413;-79
2022/05/27 13:42:33;;;;;;;13.20;2.90;;;16.50;93.70;;;;;;5033730;28;20510;-80
2022/05/27 13:45:08;;;;;;;15.98;3.05;;;16.50;92.40;;;;;;5018843;28;20100;-80